This is the latest recevied weather packets stored in our database for station/object WW0K. If no packets are shown the sender has not sent any weather packets the latest 10 day(s).
| Time | Temp. | Humidity | Pressure | Rain* | Wind** | Luminosity | Snow |
|---|---|---|---|---|---|---|---|
| 1777287936 | 15° C | 99% | - | 3.81 mm | - | - | - |
| 1777284336 | 15° C | 98% | - | 4.83 mm | - | - | - |
| 1777277730 | 16.11° C | 83% | - | 0 mm | - | - | - |
| 1777272350 | 16.67° C | 80% | - | 0 mm | - | - | - |
| 1777271143 | 16.11° C | 80% | - | 0 mm | - | - | - |
| 1777269325 | 16.11° C | 79% | - | 0 mm | - | - | - |
| 1777268135 | 16.11° C | 79% | - | 0 mm | - | - | - |
| 1777266335 | 16.67° C | 76% | - | 0 mm | - | - | - |
| 1777264536 | 17.22° C | 74% | - | 0 mm | - | - | - |
| 1777260343 | 17.78° C | 72% | - | 0 mm | - | - | - |
| 1777254922 | 17.78° C | 80% | - | 0.25 mm | - | - | - |
| 1777252529 | 18.33° C | 78% | - | 0.25 mm | - | - | - |
| 1777250135 | 20.56° C | 69% | - | 0 mm | - | - | - |
| 1777247129 | 21.67° C | 61% | - | 0 mm | - | - | - |
| 1777244123 | 22.22° C | 58% | - | 0 mm | - | - | - |
| 1777242934 | 22.78° C | 57% | - | 0 mm | - | - | - |
| 1777241135 | 22.78° C | 58% | - | 0 mm | - | - | - |
| 1777240522 | 22.78° C | 58% | - | 0 mm | - | - | - |
| 1777226733 | 20.56° C | 58% | - | 0 mm | - | - | - |
| 1777223726 | 21.11° C | 57% | - | 0 mm | - | - | - |
| 1777218326 | 18.33° C | 69% | - | 0 mm | - | - | - |
| 1777216526 | 15° C | 77% | - | 0 mm | - | - | - |
| 1777210531 | 15° C | 74% | - | 0 mm | - | - | - |
| 1777208732 | 13.33° C | 78% | - | 0 mm | - | - | - |
| 1777208119 | 12.78° C | 79% | - | 0 mm | - | - | - |
* Rain latest hour (hover to see other rain measurements)
** Current wind speed in m/s (hover to see current wind gust speed)